sensor_id;sensor_type;location;lat;lon;timestamp;P1;durP1;ratioP1;P2;durP2;ratioP2
76852;SDS011;65825;52.232;10.566;2023-07-20T00:02:04;4.20;;;2.03;;
76852;SDS011;65825;52.232;10.566;2023-07-20T00:04:30;3.97;;;1.73;;
76852;SDS011;65825;52.232;10.566;2023-07-20T00:06:56;3.47;;;2.10;;
76852;SDS011;65825;52.232;10.566;2023-07-20T00:09:21;5.05;;;1.80;;
76852;SDS011;65825;52.232;10.566;2023-07-20T00:11:50;2.83;;;2.00;;
76852;SDS011;65825;52.232;10.566;2023-07-20T00:14:16;4.25;;;1.50;;
76852;SDS011;65825;52.232;10.566;2023-07-20T00:16:42;3.10;;;1.70;;
76852;SDS011;65825;52.232;10.566;2023-07-20T00:19:08;3.45;;;1.70;;
76852;SDS011;65825;52.232;10.566;2023-07-20T00:21:34;2.50;;;1.80;;
76852;SDS011;65825;52.232;10.566;2023-07-20T00:23:59;2.80;;;1.60;;
76852;SDS011;65825;52.232;10.566;2023-07-20T00:26:24;2.78;;;1.67;;
76852;SDS011;65825;52.232;10.566;2023-07-20T00:28:50;3.90;;;1.80;;
76852;SDS011;65825;52.232;10.566;2023-07-20T00:31:16;2.50;;;1.50;;
76852;SDS011;65825;52.232;10.566;2023-07-20T00:33:41;4.07;;;2.00;;
76852;SDS011;65825;52.232;10.566;2023-07-20T00:36:06;3.17;;;1.67;;
76852;SDS011;65825;52.232;10.566;2023-07-20T00:38:32;2.85;;;1.70;;
76852;SDS011;65825;52.232;10.566;2023-07-20T00:40:58;2.90;;;1.92;;
76852;SDS011;65825;52.232;10.566;2023-07-20T00:43:23;4.00;;;1.70;;
76852;SDS011;65825;52.232;10.566;2023-07-20T00:45:48;2.13;;;1.60;;
76852;SDS011;65825;52.232;10.566;2023-07-20T00:48:14;3.70;;;1.80;;
76852;SDS011;65825;52.232;10.566;2023-07-20T00:50:40;2.88;;;1.95;;
76852;SDS011;65825;52.232;10.566;2023-07-20T00:53:06;3.67;;;1.80;;
76852;SDS011;65825;52.232;10.566;2023-07-20T00:55:32;4.43;;;1.80;;
76852;SDS011;65825;52.232;10.566;2023-07-20T00:57:58;3.17;;;1.70;;
76852;SDS011;65825;52.232;10.566;2023-07-20T01:00:24;4.18;;;1.80;;
76852;SDS011;65825;52.232;10.566;2023-07-20T01:02:50;2.65;;;1.70;;
76852;SDS011;65825;52.232;10.566;2023-07-20T01:05:16;6.00;;;2.00;;
76852;SDS011;65825;52.232;10.566;2023-07-20T01:12:51;4.45;;;1.92;;
76852;SDS011;65825;52.232;10.566;2023-07-20T01:15:17;3.25;;;1.70;;
76852;SDS011;65825;52.232;10.566;2023-07-20T01:17:43;4.82;;;1.80;;
76852;SDS011;65825;52.232;10.566;2023-07-20T01:20:10;2.70;;;1.90;;
76852;SDS011;65825;52.232;10.566;2023-07-20T01:22:59;2.80;;;1.83;;
76852;SDS011;65825;52.232;10.566;2023-07-20T01:28:37;3.38;;;1.70;;
76852;SDS011;65825;52.232;10.566;2023-07-20T01:31:21;4.13;;;1.92;;
76852;SDS011;65825;52.232;10.566;2023-07-20T01:33:50;2.92;;;1.67;;
76852;SDS011;65825;52.232;10.566;2023-07-20T01:36:18;3.67;;;1.80;;
76852;SDS011;65825;52.232;10.566;2023-07-20T01:38:45;2.50;;;1.60;;
76852;SDS011;65825;52.232;10.566;2023-07-20T01:41:11;3.20;;;1.58;;
76852;SDS011;65825;52.232;10.566;2023-07-20T01:43:36;4.13;;;1.60;;
76852;SDS011;65825;52.232;10.566;2023-07-20T01:46:02;3.05;;;1.58;;
76852;SDS011;65825;52.232;10.566;2023-07-20T01:48:27;2.13;;;1.50;;
76852;SDS011;65825;52.232;10.566;2023-07-20T01:50:52;2.40;;;1.60;;
76852;SDS011;65825;52.232;10.566;2023-07-20T01:53:18;2.87;;;1.50;;
76852;SDS011;65825;52.232;10.566;2023-07-20T01:55:43;2.92;;;1.63;;
76852;SDS011;65825;52.232;10.566;2023-07-20T01:58:08;2.33;;;1.60;;
76852;SDS011;65825;52.232;10.566;2023-07-20T02:00:34;1.90;;;1.40;;
76852;SDS011;65825;52.232;10.566;2023-07-20T02:02:59;6.63;;;1.60;;
76852;SDS011;65825;52.232;10.566;2023-07-20T02:05:24;2.50;;;1.80;;
76852;SDS011;65825;52.232;10.566;2023-07-20T02:07:50;4.35;;;1.60;;
76852;SDS011;65825;52.232;10.566;2023-07-20T02:10:15;3.58;;;1.65;;
76852;SDS011;65825;52.232;10.566;2023-07-20T02:12:41;3.05;;;1.80;;
76852;SDS011;65825;52.232;10.566;2023-07-20T02:15:06;2.50;;;1.50;;
76852;SDS011;65825;52.232;10.566;2023-07-20T02:17:33;2.97;;;1.60;;
76852;SDS011;65825;52.232;10.566;2023-07-20T02:19:58;2.65;;;1.70;;
76852;SDS011;65825;52.232;10.566;2023-07-20T02:22:24;5.13;;;1.80;;
76852;SDS011;65825;52.232;10.566;2023-07-20T02:24:49;2.50;;;1.70;;
76852;SDS011;65825;52.232;10.566;2023-07-20T02:27:15;2.28;;;1.63;;
76852;SDS011;65825;52.232;10.566;2023-07-20T02:29:41;2.60;;;1.50;;
76852;SDS011;65825;52.232;10.566;2023-07-20T02:32:07;2.60;;;1.60;;
76852;SDS011;65825;52.232;10.566;2023-07-20T02:34:33;2.88;;;1.50;;
76852;SDS011;65825;52.232;10.566;2023-07-20T02:36:58;2.35;;;1.60;;
76852;SDS011;65825;52.232;10.566;2023-07-20T02:39:26;2.30;;;1.80;;
76852;SDS011;65825;52.232;10.566;2023-07-20T02:41:52;3.50;;;1.65;;
76852;SDS011;65825;52.232;10.566;2023-07-20T02:46:43;2.50;;;1.50;;
76852;SDS011;65825;52.232;10.566;2023-07-20T02:49:08;5.63;;;1.70;;
76852;SDS011;65825;52.232;10.566;2023-07-20T02:51:34;2.42;;;1.65;;
76852;SDS011;65825;52.232;10.566;2023-07-20T02:53:59;2.92;;;1.95;;
76852;SDS011;65825;52.232;10.566;2023-07-20T02:56:25;2.58;;;1.60;;
76852;SDS011;65825;52.232;10.566;2023-07-20T02:58:50;2.70;;;1.60;;
76852;SDS011;65825;52.232;10.566;2023-07-20T03:01:16;3.65;;;1.60;;
76852;SDS011;65825;52.232;10.566;2023-07-20T03:03:44;4.93;;;1.70;;
76852;SDS011;65825;52.232;10.566;2023-07-20T03:06:12;2.75;;;1.58;;
76852;SDS011;65825;52.232;10.566;2023-07-20T03:08:40;2.83;;;1.95;;
76852;SDS011;65825;52.232;10.566;2023-07-20T03:11:06;4.10;;;1.60;;
76852;SDS011;65825;52.232;10.566;2023-07-20T03:13:32;2.97;;;1.60;;
76852;SDS011;65825;52.232;10.566;2023-07-20T03:15:57;2.50;;;1.60;;
76852;SDS011;65825;52.232;10.566;2023-07-20T03:18:23;5.28;;;2.15;;
76852;SDS011;65825;52.232;10.566;2023-07-20T03:20:48;5.13;;;1.87;;
76852;SDS011;65825;52.232;10.566;2023-07-20T03:23:13;3.67;;;1.60;;
76852;SDS011;65825;52.232;10.566;2023-07-20T03:28:05;3.27;;;1.77;;
76852;SDS011;65825;52.232;10.566;2023-07-20T03:30:30;5.47;;;2.97;;
76852;SDS011;65825;52.232;10.566;2023-07-20T03:32:56;3.00;;;1.80;;
76852;SDS011;65825;52.232;10.566;2023-07-20T03:35:21;2.87;;;1.60;;
76852;SDS011;65825;52.232;10.566;2023-07-20T03:37:47;3.75;;;1.50;;
76852;SDS011;65825;52.232;10.566;2023-07-20T03:40:12;4.80;;;2.00;;
76852;SDS011;65825;52.232;10.566;2023-07-20T03:42:37;3.40;;;1.67;;
76852;SDS011;65825;52.232;10.566;2023-07-20T03:45:04;5.18;;;1.77;;
76852;SDS011;65825;52.232;10.566;2023-07-20T03:47:31;7.63;;;1.77;;
76852;SDS011;65825;52.232;10.566;2023-07-20T03:49:56;3.53;;;2.00;;
76852;SDS011;65825;52.232;10.566;2023-07-20T03:52:22;3.13;;;1.92;;
76852;SDS011;65825;52.232;10.566;2023-07-20T03:54:48;5.03;;;2.15;;
76852;SDS011;65825;52.232;10.566;2023-07-20T03:57:13;4.15;;;1.80;;
76852;SDS011;65825;52.232;10.566;2023-07-20T03:59:38;4.93;;;2.20;;
76852;SDS011;65825;52.232;10.566;2023-07-20T04:02:04;3.80;;;1.90;;
76852;SDS011;65825;52.232;10.566;2023-07-20T04:04:30;4.35;;;1.75;;
76852;SDS011;65825;52.232;10.566;2023-07-20T04:06:56;2.70;;;1.80;;
76852;SDS011;65825;52.232;10.566;2023-07-20T04:09:21;4.90;;;1.92;;
76852;SDS011;65825;52.232;10.566;2023-07-20T04:11:47;2.40;;;1.60;;
76852;SDS011;65825;52.232;10.566;2023-07-20T04:14:12;2.70;;;1.80;;
76852;SDS011;65825;52.232;10.566;2023-07-20T04:16:37;4.15;;;1.77;;
76852;SDS011;65825;52.232;10.566;2023-07-20T04:19:03;2.95;;;1.65;;
76852;SDS011;65825;52.232;10.566;2023-07-20T04:21:28;5.80;;;1.60;;
76852;SDS011;65825;52.232;10.566;2023-07-20T04:23:53;2.40;;;1.70;;
76852;SDS011;65825;52.232;10.566;2023-07-20T04:26:18;5.35;;;1.60;;
76852;SDS011;65825;52.232;10.566;2023-07-20T04:28:44;5.68;;;1.52;;
76852;SDS011;65825;52.232;10.566;2023-07-20T04:31:12;4.97;;;1.80;;
76852;SDS011;65825;52.232;10.566;2023-07-20T04:33:39;6.00;;;1.80;;
76852;SDS011;65825;52.232;10.566;2023-07-20T04:36:04;2.63;;;1.80;;
76852;SDS011;65825;52.232;10.566;2023-07-20T04:38:30;3.97;;;1.70;;
76852;SDS011;65825;52.232;10.566;2023-07-20T04:40:56;2.85;;;1.70;;
76852;SDS011;65825;52.232;10.566;2023-07-20T04:43:21;2.95;;;1.90;;
76852;SDS011;65825;52.232;10.566;2023-07-20T04:45:46;3.40;;;1.92;;
76852;SDS011;65825;52.232;10.566;2023-07-20T04:48:13;3.63;;;1.77;;
76852;SDS011;65825;52.232;10.566;2023-07-20T04:50:40;3.03;;;1.60;;
76852;SDS011;65825;52.232;10.566;2023-07-20T04:53:06;2.90;;;1.40;;
76852;SDS011;65825;52.232;10.566;2023-07-20T04:55:32;3.80;;;1.50;;
76852;SDS011;65825;52.232;10.566;2023-07-20T04:58:01;2.95;;;1.60;;
76852;SDS011;65825;52.232;10.566;2023-07-20T05:00:27;4.35;;;1.80;;
76852;SDS011;65825;52.232;10.566;2023-07-20T05:02:52;3.42;;;1.80;;
76852;SDS011;65825;52.232;10.566;2023-07-20T05:05:18;5.75;;;1.70;;
76852;SDS011;65825;52.232;10.566;2023-07-20T05:07:43;3.65;;;1.70;;
76852;SDS011;65825;52.232;10.566;2023-07-20T05:10:09;3.50;;;1.60;;
76852;SDS011;65825;52.232;10.566;2023-07-20T05:12:34;2.20;;;1.70;;
76852;SDS011;65825;52.232;10.566;2023-07-20T05:15:00;4.93;;;1.77;;
76852;SDS011;65825;52.232;10.566;2023-07-20T05:17:25;3.20;;;1.70;;
76852;SDS011;65825;52.232;10.566;2023-07-20T05:19:50;2.40;;;1.70;;
76852;SDS011;65825;52.232;10.566;2023-07-20T05:22:16;3.60;;;1.92;;
76852;SDS011;65825;52.232;10.566;2023-07-20T05:24:41;2.80;;;1.70;;
76852;SDS011;65825;52.232;10.566;2023-07-20T05:27:06;5.30;;;1.92;;
76852;SDS011;65825;52.232;10.566;2023-07-20T05:29:32;5.47;;;2.00;;
76852;SDS011;65825;52.232;10.566;2023-07-20T05:31:58;3.17;;;1.85;;
76852;SDS011;65825;52.232;10.566;2023-07-20T05:34:23;5.45;;;2.20;;
76852;SDS011;65825;52.232;10.566;2023-07-20T05:36:48;5.28;;;2.10;;
76852;SDS011;65825;52.232;10.566;2023-07-20T05:39:14;3.78;;;1.80;;
76852;SDS011;65825;52.232;10.566;2023-07-20T05:41:41;3.30;;;2.00;;
76852;SDS011;65825;52.232;10.566;2023-07-20T05:44:07;3.72;;;2.33;;
76852;SDS011;65825;52.232;10.566;2023-07-20T05:46:32;6.13;;;2.35;;
76852;SDS011;65825;52.232;10.566;2023-07-20T05:48:57;4.80;;;2.43;;
76852;SDS011;65825;52.232;10.566;2023-07-20T05:51:23;5.00;;;2.37;;
76852;SDS011;65825;52.232;10.566;2023-07-20T05:53:48;4.30;;;2.30;;
76852;SDS011;65825;52.232;10.566;2023-07-20T05:56:13;4.33;;;2.33;;
76852;SDS011;65825;52.232;10.566;2023-07-20T05:58:39;5.05;;;2.42;;
76852;SDS011;65825;52.232;10.566;2023-07-20T06:01:04;5.07;;;2.50;;
76852;SDS011;65825;52.232;10.566;2023-07-20T06:03:32;3.72;;;2.40;;
76852;SDS011;65825;52.232;10.566;2023-07-20T06:05:59;5.43;;;2.20;;
76852;SDS011;65825;52.232;10.566;2023-07-20T06:08:29;2.97;;;2.00;;
76852;SDS011;65825;52.232;10.566;2023-07-20T06:10:54;4.65;;;2.20;;
76852;SDS011;65825;52.232;10.566;2023-07-20T06:13:19;5.78;;;2.05;;
76852;SDS011;65825;52.232;10.566;2023-07-20T06:15:45;5.18;;;2.00;;
76852;SDS011;65825;52.232;10.566;2023-07-20T06:18:10;7.95;;;2.72;;
76852;SDS011;65825;52.232;10.566;2023-07-20T06:20:35;5.00;;;2.50;;
76852;SDS011;65825;52.232;10.566;2023-07-20T06:23:01;5.13;;;2.33;;
76852;SDS011;65825;52.232;10.566;2023-07-20T06:25:26;6.93;;;2.30;;
76852;SDS011;65825;52.232;10.566;2023-07-20T06:27:51;4.50;;;2.30;;
76852;SDS011;65825;52.232;10.566;2023-07-20T06:30:17;3.40;;;2.03;;
76852;SDS011;65825;52.232;10.566;2023-07-20T06:32:42;4.38;;;2.08;;
76852;SDS011;65825;52.232;10.566;2023-07-20T06:35:08;4.72;;;2.30;;
76852;SDS011;65825;52.232;10.566;2023-07-20T06:37:34;3.92;;;2.20;;
76852;SDS011;65825;52.232;10.566;2023-07-20T06:40:00;5.07;;;2.30;;
76852;SDS011;65825;52.232;10.566;2023-07-20T06:42:25;6.15;;;2.55;;
76852;SDS011;65825;52.232;10.566;2023-07-20T06:44:51;4.13;;;2.57;;
76852;SDS011;65825;52.232;10.566;2023-07-20T06:47:16;5.07;;;2.22;;
76852;SDS011;65825;52.232;10.566;2023-07-20T06:49:41;3.00;;;2.37;;
76852;SDS011;65825;52.232;10.566;2023-07-20T06:52:06;6.43;;;2.75;;
76852;SDS011;65825;52.232;10.566;2023-07-20T06:54:32;4.32;;;2.95;;
76852;SDS011;65825;52.232;10.566;2023-07-20T06:56:57;3.67;;;2.30;;
76852;SDS011;65825;52.232;10.566;2023-07-20T06:59:23;7.32;;;2.92;;
76852;SDS011;65825;52.232;10.566;2023-07-20T07:01:49;5.93;;;2.55;;
76852;SDS011;65825;52.232;10.566;2023-07-20T07:04:14;5.18;;;2.83;;
76852;SDS011;65825;52.232;10.566;2023-07-20T07:06:40;3.85;;;2.85;;
76852;SDS011;65825;52.232;10.566;2023-07-20T07:09:05;4.25;;;2.90;;
76852;SDS011;65825;52.232;10.566;2023-07-20T07:11:30;4.53;;;2.65;;
76852;SDS011;65825;52.232;10.566;2023-07-20T07:13:56;6.18;;;3.33;;
76852;SDS011;65825;52.232;10.566;2023-07-20T07:16:21;7.55;;;3.53;;
76852;SDS011;65825;52.232;10.566;2023-07-20T07:18:47;5.22;;;3.53;;
76852;SDS011;65825;52.232;10.566;2023-07-20T07:21:12;4.75;;;3.35;;
76852;SDS011;65825;52.232;10.566;2023-07-20T07:23:38;4.57;;;3.22;;
76852;SDS011;65825;52.232;10.566;2023-07-20T07:26:04;7.40;;;4.10;;
76852;SDS011;65825;52.232;10.566;2023-07-20T07:28:29;4.53;;;3.35;;
76852;SDS011;65825;52.232;10.566;2023-07-20T07:30:55;5.75;;;3.47;;
76852;SDS011;65825;52.232;10.566;2023-07-20T07:33:22;5.55;;;3.60;;
76852;SDS011;65825;52.232;10.566;2023-07-20T07:35:47;5.55;;;3.45;;
76852;SDS011;65825;52.232;10.566;2023-07-20T07:38:13;5.85;;;3.75;;
76852;SDS011;65825;52.232;10.566;2023-07-20T07:40:38;4.93;;;3.25;;
76852;SDS011;65825;52.232;10.566;2023-07-20T07:43:03;5.55;;;3.70;;
76852;SDS011;65825;52.232;10.566;2023-07-20T07:45:29;6.45;;;3.45;;
76852;SDS011;65825;52.232;10.566;2023-07-20T07:47:54;5.82;;;3.30;;
76852;SDS011;65825;52.232;10.566;2023-07-20T07:50:19;4.57;;;3.10;;
76852;SDS011;65825;52.232;10.566;2023-07-20T07:52:45;3.92;;;2.78;;
76852;SDS011;65825;52.232;10.566;2023-07-20T07:57:36;3.97;;;2.60;;
76852;SDS011;65825;52.232;10.566;2023-07-20T08:00:02;4.53;;;2.90;;
76852;SDS011;65825;52.232;10.566;2023-07-20T08:02:28;5.45;;;2.80;;
76852;SDS011;65825;52.232;10.566;2023-07-20T08:04:54;4.57;;;2.70;;
76852;SDS011;65825;52.232;10.566;2023-07-20T08:07:19;3.63;;;2.70;;
76852;SDS011;65825;52.232;10.566;2023-07-20T08:09:44;4.73;;;2.80;;
76852;SDS011;65825;52.232;10.566;2023-07-20T08:12:10;5.18;;;2.90;;
76852;SDS011;65825;52.232;10.566;2023-07-20T08:14:35;3.47;;;2.75;;
76852;SDS011;65825;52.232;10.566;2023-07-20T08:17:00;4.70;;;3.10;;
76852;SDS011;65825;52.232;10.566;2023-07-20T08:19:25;3.90;;;3.10;;
76852;SDS011;65825;52.232;10.566;2023-07-20T08:21:51;3.88;;;3.00;;
76852;SDS011;65825;52.232;10.566;2023-07-20T08:24:16;3.65;;;2.90;;
76852;SDS011;65825;52.232;10.566;2023-07-20T08:26:42;4.43;;;2.70;;
76852;SDS011;65825;52.232;10.566;2023-07-20T08:29:07;4.43;;;2.85;;
76852;SDS011;65825;52.232;10.566;2023-07-20T08:31:32;3.72;;;2.63;;
76852;SDS011;65825;52.232;10.566;2023-07-20T08:33:58;5.70;;;2.80;;
76852;SDS011;65825;52.232;10.566;2023-07-20T08:36:23;5.50;;;2.37;;
76852;SDS011;65825;52.232;10.566;2023-07-20T08:38:49;4.43;;;2.13;;
76852;SDS011;65825;52.232;10.566;2023-07-20T08:43:41;3.35;;;2.30;;
76852;SDS011;65825;52.232;10.566;2023-07-20T08:46:08;3.03;;;1.90;;
76852;SDS011;65825;52.232;10.566;2023-07-20T08:48:37;2.53;;;1.67;;
76852;SDS011;65825;52.232;10.566;2023-07-20T08:51:04;4.35;;;1.90;;
76852;SDS011;65825;52.232;10.566;2023-07-20T08:53:30;2.42;;;1.65;;
76852;SDS011;65825;52.232;10.566;2023-07-20T08:55:57;3.95;;;1.55;;
76852;SDS011;65825;52.232;10.566;2023-07-20T08:58:24;2.45;;;1.50;;
76852;SDS011;65825;52.232;10.566;2023-07-20T09:00:51;2.42;;;1.40;;
76852;SDS011;65825;52.232;10.566;2023-07-20T09:03:18;2.20;;;1.52;;
76852;SDS011;65825;52.232;10.566;2023-07-20T09:05:44;3.28;;;1.60;;
76852;SDS011;65825;52.232;10.566;2023-07-20T09:08:10;2.15;;;1.30;;
76852;SDS011;65825;52.232;10.566;2023-07-20T09:10:36;2.35;;;1.45;;
76852;SDS011;65825;52.232;10.566;2023-07-20T09:13:01;2.58;;;1.60;;
76852;SDS011;65825;52.232;10.566;2023-07-20T09:15:26;4.10;;;1.48;;
76852;SDS011;65825;52.232;10.566;2023-07-20T09:17:53;2.72;;;1.42;;
76852;SDS011;65825;52.232;10.566;2023-07-20T09:20:19;3.15;;;1.48;;
76852;SDS011;65825;52.232;10.566;2023-07-20T09:22:45;2.90;;;1.20;;
76852;SDS011;65825;52.232;10.566;2023-07-20T09:25:14;1.63;;;1.20;;
76852;SDS011;65825;52.232;10.566;2023-07-20T09:27:42;1.67;;;1.15;;
76852;SDS011;65825;52.232;10.566;2023-07-20T09:30:09;1.60;;;1.10;;
76852;SDS011;65825;52.232;10.566;2023-07-20T09:32:38;2.10;;;1.20;;
76852;SDS011;65825;52.232;10.566;2023-07-20T09:35:14;2.42;;;1.10;;
76852;SDS011;65825;52.232;10.566;2023-07-20T09:37:45;1.70;;;1.20;;
76852;SDS011;65825;52.232;10.566;2023-07-20T09:40:23;1.58;;;1.17;;
76852;SDS011;65825;52.232;10.566;2023-07-20T09:42:50;2.40;;;1.20;;
76852;SDS011;65825;52.232;10.566;2023-07-20T09:45:17;4.03;;;1.17;;
76852;SDS011;65825;52.232;10.566;2023-07-20T09:47:43;3.60;;;1.45;;
76852;SDS011;65825;52.232;10.566;2023-07-20T09:50:08;3.15;;;1.40;;
76852;SDS011;65825;52.232;10.566;2023-07-20T09:52:39;2.50;;;1.10;;
76852;SDS011;65825;52.232;10.566;2023-07-20T09:55:08;2.20;;;1.27;;
76852;SDS011;65825;52.232;10.566;2023-07-20T09:57:34;1.45;;;1.20;;
76852;SDS011;65825;52.232;10.566;2023-07-20T10:00:00;1.45;;;1.20;;
76852;SDS011;65825;52.232;10.566;2023-07-20T10:02:33;1.88;;;1.30;;
76852;SDS011;65825;52.232;10.566;2023-07-20T10:05:02;3.35;;;1.30;;
76852;SDS011;65825;52.232;10.566;2023-07-20T10:07:29;1.77;;;1.30;;
76852;SDS011;65825;52.232;10.566;2023-07-20T10:09:56;2.20;;;1.45;;
76852;SDS011;65825;52.232;10.566;2023-07-20T10:12:23;1.95;;;1.10;;
76852;SDS011;65825;52.232;10.566;2023-07-20T10:14:57;2.22;;;1.13;;
76852;SDS011;65825;52.232;10.566;2023-07-20T10:17:27;1.20;;;1.00;;
76852;SDS011;65825;52.232;10.566;2023-07-20T10:19:54;4.03;;;1.42;;
76852;SDS011;65825;52.232;10.566;2023-07-20T10:22:25;2.42;;;1.30;;
76852;SDS011;65825;52.232;10.566;2023-07-20T10:24:51;1.23;;;1.10;;
76852;SDS011;65825;52.232;10.566;2023-07-20T10:27:19;2.45;;;1.38;;
76852;SDS011;65825;52.232;10.566;2023-07-20T10:29:45;2.33;;;1.30;;
76852;SDS011;65825;52.232;10.566;2023-07-20T10:32:12;1.60;;;1.10;;
76852;SDS011;65825;52.232;10.566;2023-07-20T10:34:38;3.63;;;1.30;;
76852;SDS011;65825;52.232;10.566;2023-07-20T10:37:04;1.58;;;1.35;;
76852;SDS011;65825;52.232;10.566;2023-07-20T10:39:32;3.33;;;1.40;;
76852;SDS011;65825;52.232;10.566;2023-07-20T10:42:02;2.35;;;1.30;;
76852;SDS011;65825;52.232;10.566;2023-07-20T10:44:31;2.15;;;1.40;;
76852;SDS011;65825;52.232;10.566;2023-07-20T10:47:00;2.03;;;1.15;;
76852;SDS011;65825;52.232;10.566;2023-07-20T10:49:26;2.05;;;1.38;;
76852;SDS011;65825;52.232;10.566;2023-07-20T10:51:56;2.55;;;1.35;;
76852;SDS011;65825;52.232;10.566;2023-07-20T10:56:49;2.28;;;1.27;;
76852;SDS011;65825;52.232;10.566;2023-07-20T10:59:18;2.47;;;1.42;;
76852;SDS011;65825;52.232;10.566;2023-07-20T11:01:46;4.05;;;1.30;;
76852;SDS011;65825;52.232;10.566;2023-07-20T11:04:12;2.30;;;1.30;;
76852;SDS011;65825;52.232;10.566;2023-07-20T11:06:38;2.88;;;1.48;;
76852;SDS011;65825;52.232;10.566;2023-07-20T11:09:09;2.53;;;1.40;;
76852;SDS011;65825;52.232;10.566;2023-07-20T11:11:43;2.60;;;1.40;;
76852;SDS011;65825;52.232;10.566;2023-07-20T11:14:10;3.55;;;1.50;;
76852;SDS011;65825;52.232;10.566;2023-07-20T11:16:45;2.22;;;1.50;;
76852;SDS011;65825;52.232;10.566;2023-07-20T11:21:41;1.83;;;1.30;;
76852;SDS011;65825;52.232;10.566;2023-07-20T11:24:07;1.30;;;1.17;;
76852;SDS011;65825;52.232;10.566;2023-07-20T11:26:40;2.35;;;1.30;;
76852;SDS011;65825;52.232;10.566;2023-07-20T11:29:07;1.42;;;1.20;;
76852;SDS011;65825;52.232;10.566;2023-07-20T11:31:34;1.85;;;1.30;;
76852;SDS011;65825;52.232;10.566;2023-07-20T11:34:01;2.30;;;1.30;;
76852;SDS011;65825;52.232;10.566;2023-07-20T11:36:26;2.92;;;1.27;;
76852;SDS011;65825;52.232;10.566;2023-07-20T11:38:51;2.33;;;1.30;;
76852;SDS011;65825;52.232;10.566;2023-07-20T11:41:17;2.20;;;1.30;;
76852;SDS011;65825;52.232;10.566;2023-07-20T11:43:43;2.15;;;1.30;;
76852;SDS011;65825;52.232;10.566;2023-07-20T11:46:10;2.08;;;1.25;;
76852;SDS011;65825;52.232;10.566;2023-07-20T11:48:36;2.95;;;1.30;;
76852;SDS011;65825;52.232;10.566;2023-07-20T11:51:01;3.63;;;1.30;;
76852;SDS011;65825;52.232;10.566;2023-07-20T11:53:27;2.10;;;1.42;;
76852;SDS011;65825;52.232;10.566;2023-07-20T11:55:52;2.63;;;1.30;;
76852;SDS011;65825;52.232;10.566;2023-07-20T11:58:18;5.10;;;1.42;;
76852;SDS011;65825;52.232;10.566;2023-07-20T12:00:44;4.40;;;1.30;;
76852;SDS011;65825;52.232;10.566;2023-07-20T12:03:11;2.20;;;1.30;;
76852;SDS011;65825;52.232;10.566;2023-07-20T12:05:40;3.00;;;1.30;;
76852;SDS011;65825;52.232;10.566;2023-07-20T12:08:05;2.38;;;1.30;;
76852;SDS011;65825;52.232;10.566;2023-07-20T12:10:31;3.90;;;1.40;;
76852;SDS011;65825;52.232;10.566;2023-07-20T12:13:02;6.05;;;1.80;;
76852;SDS011;65825;52.232;10.566;2023-07-20T12:15:28;2.00;;;1.30;;
76852;SDS011;65825;52.232;10.566;2023-07-20T12:17:56;2.20;;;1.20;;
76852;SDS011;65825;52.232;10.566;2023-07-20T12:20:33;2.20;;;1.30;;
76852;SDS011;65825;52.232;10.566;2023-07-20T12:23:12;3.20;;;1.30;;
76852;SDS011;65825;52.232;10.566;2023-07-20T12:25:39;2.28;;;1.20;;
76852;SDS011;65825;52.232;10.566;2023-07-20T12:28:14;2.72;;;1.33;;
76852;SDS011;65825;52.232;10.566;2023-07-20T12:30:42;1.63;;;1.20;;
76852;SDS011;65825;52.232;10.566;2023-07-20T12:33:09;2.22;;;1.40;;
76852;SDS011;65825;52.232;10.566;2023-07-20T12:35:34;1.92;;;1.30;;
76852;SDS011;65825;52.232;10.566;2023-07-20T12:38:00;2.40;;;1.30;;
76852;SDS011;65825;52.232;10.566;2023-07-20T12:40:25;2.63;;;1.40;;
76852;SDS011;65825;52.232;10.566;2023-07-20T12:42:51;3.90;;;1.30;;
76852;SDS011;65825;52.232;10.566;2023-07-20T12:45:17;3.50;;;1.30;;
76852;SDS011;65825;52.232;10.566;2023-07-20T12:47:42;3.33;;;1.20;;
76852;SDS011;65825;52.232;10.566;2023-07-20T12:50:08;2.92;;;1.30;;
76852;SDS011;65825;52.232;10.566;2023-07-20T12:52:37;2.25;;;1.20;;
76852;SDS011;65825;52.232;10.566;2023-07-20T12:55:04;2.40;;;1.40;;
76852;SDS011;65825;52.232;10.566;2023-07-20T12:57:30;2.63;;;1.50;;
76852;SDS011;65825;52.232;10.566;2023-07-20T12:59:55;3.37;;;1.33;;
76852;SDS011;65825;52.232;10.566;2023-07-20T13:02:20;2.93;;;1.37;;
76852;SDS011;65825;52.232;10.566;2023-07-20T13:04:45;2.97;;;1.23;;
76852;SDS011;65825;52.232;10.566;2023-07-20T13:07:11;2.25;;;1.30;;
76852;SDS011;65825;52.232;10.566;2023-07-20T13:09:37;1.75;;;1.30;;
76852;SDS011;65825;52.232;10.566;2023-07-20T13:12:02;3.80;;;1.35;;
76852;SDS011;65825;52.232;10.566;2023-07-20T13:14:28;4.95;;;1.45;;
76852;SDS011;65825;52.232;10.566;2023-07-20T13:16:55;2.13;;;1.40;;
76852;SDS011;65825;52.232;10.566;2023-07-20T13:19:20;3.70;;;1.40;;
76852;SDS011;65825;52.232;10.566;2023-07-20T13:21:46;2.15;;;1.40;;
76852;SDS011;65825;52.232;10.566;2023-07-20T13:24:11;3.30;;;1.20;;
76852;SDS011;65825;52.232;10.566;2023-07-20T13:26:37;1.52;;;1.02;;
76852;SDS011;65825;52.232;10.566;2023-07-20T13:29:02;1.63;;;1.20;;
76852;SDS011;65825;52.232;10.566;2023-07-20T13:31:27;3.78;;;1.40;;
76852;SDS011;65825;52.232;10.566;2023-07-20T13:33:53;2.08;;;1.20;;
76852;SDS011;65825;52.232;10.566;2023-07-20T13:36:18;2.33;;;1.50;;
76852;SDS011;65825;52.232;10.566;2023-07-20T13:38:45;1.67;;;1.23;;
76852;SDS011;65825;52.232;10.566;2023-07-20T13:41:11;2.10;;;1.20;;
76852;SDS011;65825;52.232;10.566;2023-07-20T13:43:36;3.83;;;1.45;;
76852;SDS011;65825;52.232;10.566;2023-07-20T13:46:02;3.30;;;1.55;;
76852;SDS011;65825;52.232;10.566;2023-07-20T13:48:27;1.35;;;1.10;;
76852;SDS011;65825;52.232;10.566;2023-07-20T13:50:53;4.97;;;1.50;;
76852;SDS011;65825;52.232;10.566;2023-07-20T13:53:19;3.78;;;1.45;;
76852;SDS011;65825;52.232;10.566;2023-07-20T13:55:44;2.33;;;1.40;;
76852;SDS011;65825;52.232;10.566;2023-07-20T13:58:09;2.35;;;1.40;;
76852;SDS011;65825;52.232;10.566;2023-07-20T14:00:35;3.17;;;1.70;;
76852;SDS011;65825;52.232;10.566;2023-07-20T14:03:01;2.88;;;1.50;;
76852;SDS011;65825;52.232;10.566;2023-07-20T14:05:27;2.53;;;1.50;;
76852;SDS011;65825;52.232;10.566;2023-07-20T14:07:53;4.43;;;1.80;;
76852;SDS011;65825;52.232;10.566;2023-07-20T14:10:19;1.58;;;1.25;;
76852;SDS011;65825;52.232;10.566;2023-07-20T14:12:44;2.47;;;1.45;;
76852;SDS011;65825;52.232;10.566;2023-07-20T14:15:10;2.15;;;1.30;;
76852;SDS011;65825;52.232;10.566;2023-07-20T14:17:35;6.32;;;1.40;;
76852;SDS011;65825;52.232;10.566;2023-07-20T14:20:01;3.80;;;1.40;;
76852;SDS011;65825;52.232;10.566;2023-07-20T14:22:30;3.20;;;1.40;;
76852;SDS011;65825;52.232;10.566;2023-07-20T14:24:55;2.50;;;1.45;;
76852;SDS011;65825;52.232;10.566;2023-07-20T14:27:21;3.55;;;1.40;;
76852;SDS011;65825;52.232;10.566;2023-07-20T14:29:46;2.35;;;1.50;;
76852;SDS011;65825;52.232;10.566;2023-07-20T14:32:12;3.03;;;1.50;;
76852;SDS011;65825;52.232;10.566;2023-07-20T14:34:37;4.25;;;1.50;;
76852;SDS011;65825;52.232;10.566;2023-07-20T14:37:02;4.28;;;1.55;;
76852;SDS011;65825;52.232;10.566;2023-07-20T14:39:29;4.25;;;1.40;;
76852;SDS011;65825;52.232;10.566;2023-07-20T14:41:54;3.05;;;1.38;;
76852;SDS011;65825;52.232;10.566;2023-07-20T14:44:20;2.00;;;1.30;;
76852;SDS011;65825;52.232;10.566;2023-07-20T14:46:45;2.58;;;1.33;;
76852;SDS011;65825;52.232;10.566;2023-07-20T14:49:11;1.90;;;1.40;;
76852;SDS011;65825;52.232;10.566;2023-07-20T14:51:36;1.95;;;1.30;;